AFR832 DNAA-DXXX
Flight info
| Callsign | AFR832 |
|---|---|
| Flight time | 0h 59m |
| Altitude | 40000 |
| Route | IKSEM1Q IKSEM DCT VONUK UH340 LAG UL433 MONOS MONOS1L |
| Aircraft | A359/H-SDE2E3GHIJ3J4J5LM1ORWXY/LB1D1 |
Departure
| Time | 2026-05-01 13:46 |
|---|---|
| Airport | Nnamdi Azikiwe International Airport (DNAA) |
Arrival
| Time | 2026-05-01 14:46 |
|---|---|
| Airport | Lomé–Tokoin International Airport (DXXX) |
| Time | Latitude | Longitude | Altitude | Speed | Heading |
|---|---|---|---|---|---|
| 2026-05-01 13:22 | 9.00712 | 7.26695 | 1131 ft | 0 kts | 180° |
| 2026-05-01 13:36 | 9.00729 | 7.26695 | 1134 ft | 3 kts | 181° |
| 2026-05-01 13:37 | 9.00748 | 7.26696 | 1132 ft | 3 kts | 185° |
| 2026-05-01 13:37 | 9.00767 | 7.26699 | 1135 ft | 3 kts | 207° |
| 2026-05-01 13:37 | 9.00783 | 7.26707 | 1134 ft | 3 kts | 220° |
| 2026-05-01 13:37 | 9.00795 | 7.26723 | 1135 ft | 3 kts | 261° |
| 2026-05-01 13:38 | 9.00796 | 7.26725 | 1131 ft | 0 kts | 267° |
| 2026-05-01 13:40 | 9.00796 | 7.26721 | 1131 ft | 4 kts | 267° |
| 2026-05-01 13:40 | 9.00793 | 7.26672 | 1134 ft | 9 kts | 267° |
| 2026-05-01 13:40 | 9.00817 | 7.26629 | 1134 ft | 5 kts | 352° |
| 2026-05-01 13:40 | 9.00854 | 7.26646 | 1133 ft | 7 kts | 34° |
| 2026-05-01 13:41 | 9.00917 | 7.26689 | 1118 ft | 15 kts | 35° |
| 2026-05-01 13:41 | 9.01009 | 7.26753 | 1121 ft | 17 kts | 36° |
| 2026-05-01 13:41 | 9.01109 | 7.26825 | 1135 ft | 18 kts | 35° |
| 2026-05-01 13:41 | 9.01209 | 7.26896 | 1138 ft | 18 kts | 34° |
| 2026-05-01 13:42 | 9.01315 | 7.26970 | 1137 ft | 20 kts | 36° |
| 2026-05-01 13:42 | 9.01432 | 7.27054 | 1139 ft | 21 kts | 34° |
| 2026-05-01 13:42 | 9.01557 | 7.27141 | 1139 ft | 23 kts | 34° |
| 2026-05-01 13:42 | 9.01693 | 7.27238 | 1138 ft | 25 kts | 35° |
| 2026-05-01 13:43 | 9.01831 | 7.27336 | 1137 ft | 20 kts | 35° |
| 2026-05-01 13:43 | 9.01934 | 7.27344 | 1140 ft | 15 kts | 317° |
| 2026-05-01 13:43 | 9.01984 | 7.27255 | 1138 ft | 12 kts | 261° |
| 2026-05-01 13:43 | 9.01946 | 7.27212 | 1139 ft | 0 kts | 214° |
| 2026-05-01 13:45 | 9.01916 | 7.27191 | 1140 ft | 21 kts | 214° |
| 2026-05-01 13:45 | 9.01581 | 7.26953 | 1141 ft | 95 kts | 215° |
| 2026-05-01 13:45 | 9.00851 | 7.26437 | 1113 ft | 158 kts | 215° |
| 2026-05-01 13:46 | 8.99827 | 7.25711 | 1400 ft | 190 kts | 215° |
| 2026-05-01 13:46 | 8.98737 | 7.24923 | 2111 ft | 196 kts | 215° |
| 2026-05-01 13:46 | 8.97637 | 7.23999 | 2543 ft | 219 kts | 230° |
| 2026-05-01 13:46 | 8.96891 | 7.22553 | 2814 ft | 246 kts | 247° |
| 2026-05-01 13:47 | 8.96099 | 7.20926 | 3238 ft | 266 kts | 239° |
| 2026-05-01 13:47 | 8.95069 | 7.19354 | 4004 ft | 270 kts | 234° |
| 2026-05-01 13:47 | 8.93937 | 7.17799 | 4779 ft | 276 kts | 233° |
| 2026-05-01 13:47 | 8.92783 | 7.16225 | 5608 ft | 280 kts | 233° |
| 2026-05-01 13:48 | 8.91629 | 7.14623 | 6383 ft | 284 kts | 234° |
| 2026-05-01 13:48 | 8.90486 | 7.12963 | 7071 ft | 292 kts | 236° |
| 2026-05-01 13:48 | 8.89371 | 7.11246 | 7755 ft | 299 kts | 237° |
| 2026-05-01 13:48 | 8.88219 | 7.09465 | 8524 ft | 305 kts | 235° |
| 2026-05-01 13:49 | 8.86999 | 7.07681 | 9284 ft | 311 kts | 234° |
| 2026-05-01 13:49 | 8.85748 | 7.05863 | 10010 ft | 319 kts | 234° |
| 2026-05-01 13:49 | 8.84451 | 7.03963 | 10406 ft | 338 kts | 235° |
| 2026-05-01 13:49 | 8.83087 | 7.01947 | 10762 ft | 355 kts | 235° |
| 2026-05-01 13:50 | 8.81681 | 6.99860 | 11375 ft | 362 kts | 235° |
| 2026-05-01 13:50 | 8.80260 | 6.97745 | 12108 ft | 365 kts | 236° |
| 2026-05-01 13:50 | 8.78832 | 6.95618 | 12906 ft | 366 kts | 236° |
| 2026-05-01 13:50 | 8.77399 | 6.93485 | 13663 ft | 368 kts | 236° |
| 2026-05-01 13:51 | 8.75954 | 6.91333 | 14325 ft | 371 kts | 236° |
| 2026-05-01 13:51 | 8.74493 | 6.89158 | 14904 ft | 377 kts | 236° |
| 2026-05-01 13:51 | 8.73013 | 6.86954 | 15490 ft | 381 kts | 235° |
| 2026-05-01 13:51 | 8.71514 | 6.84722 | 16063 ft | 386 kts | 235° |
| 2026-05-01 13:52 | 8.69997 | 6.82465 | 16669 ft | 390 kts | 235° |
| 2026-05-01 13:52 | 8.68460 | 6.80178 | 17276 ft | 394 kts | 234° |
| 2026-05-01 13:52 | 8.66930 | 6.77900 | 17874 ft | 398 kts | 234° |
| 2026-05-01 13:52 | 8.65364 | 6.75571 | 18423 ft | 402 kts | 234° |
| 2026-05-01 13:53 | 8.63788 | 6.73226 | 19012 ft | 403 kts | 234° |
| 2026-05-01 13:53 | 8.60623 | 6.68518 | 20198 ft | 408 kts | 234° |
| 2026-05-01 13:53 | 8.59022 | 6.66137 | 20778 ft | 411 kts | 234° |
| 2026-05-01 13:54 | 8.57411 | 6.63743 | 21371 ft | 413 kts | 234° |
| 2026-05-01 13:54 | 8.55768 | 6.61349 | 21963 ft | 416 kts | 232° |
| 2026-05-01 13:54 | 8.53863 | 6.59139 | 22540 ft | 417 kts | 224° |
| 2026-05-01 13:54 | 8.51771 | 6.57104 | 23113 ft | 420 kts | 221° |
| 2026-05-01 13:55 | 8.49584 | 6.55134 | 23635 ft | 422 kts | 219° |
| 2026-05-01 13:55 | 8.47345 | 6.53184 | 24110 ft | 425 kts | 219° |
| 2026-05-01 13:55 | 8.45089 | 6.51232 | 24630 ft | 428 kts | 219° |
| 2026-05-01 13:55 | 8.42826 | 6.49264 | 25159 ft | 430 kts | 219° |
| 2026-05-01 13:56 | 8.40608 | 6.47221 | 25663 ft | 434 kts | 224° |
| 2026-05-01 13:56 | 8.38676 | 6.44862 | 26168 ft | 439 kts | 234° |
| 2026-05-01 13:56 | 8.37043 | 6.42235 | 26660 ft | 443 kts | 238° |
| 2026-05-01 13:56 | 8.35515 | 6.39517 | 27184 ft | 446 kts | 240° |
| 2026-05-01 13:57 | 8.34055 | 6.36779 | 27691 ft | 449 kts | 240° |
| 2026-05-01 13:57 | 8.33066 | 6.34887 | 28039 ft | 451 kts | 241° |
| 2026-05-01 13:57 | 8.31123 | 6.31149 | 28707 ft | 455 kts | 241° |
| 2026-05-01 13:57 | 8.29641 | 6.28312 | 29194 ft | 458 kts | 240° |
| 2026-05-01 13:58 | 8.28141 | 6.25461 | 29682 ft | 461 kts | 240° |
| 2026-05-01 13:58 | 8.26621 | 6.22590 | 30095 ft | 465 kts | 240° |
| 2026-05-01 13:58 | 8.25085 | 6.19699 | 30452 ft | 468 kts | 240° |
| 2026-05-01 13:58 | 8.23537 | 6.16792 | 30818 ft | 471 kts | 240° |
| 2026-05-01 13:59 | 8.21978 | 6.13865 | 31172 ft | 475 kts | 240° |
| 2026-05-01 13:59 | 8.20426 | 6.10954 | 31532 ft | 478 kts | 240° |
| 2026-05-01 13:59 | 8.18845 | 6.07987 | 31888 ft | 481 kts | 240° |
| 2026-05-01 13:59 | 8.17250 | 6.04994 | 32231 ft | 484 kts | 240° |
| 2026-05-01 14:00 | 8.15651 | 6.01993 | 32564 ft | 487 kts | 240° |
| 2026-05-01 14:00 | 8.14042 | 5.98974 | 32906 ft | 490 kts | 240° |
| 2026-05-01 14:00 | 8.12424 | 5.95939 | 33224 ft | 493 kts | 240° |
| 2026-05-01 14:00 | 8.10794 | 5.92882 | 33528 ft | 496 kts | 240° |
| 2026-05-01 14:01 | 8.09152 | 5.89804 | 33844 ft | 499 kts | 240° |
| 2026-05-01 14:01 | 8.07504 | 5.86713 | 34105 ft | 501 kts | 240° |
| 2026-05-01 14:01 | 8.05848 | 5.83609 | 34382 ft | 503 kts | 240° |
| 2026-05-01 14:01 | 8.04189 | 5.80500 | 34746 ft | 502 kts | 240° |
| 2026-05-01 14:02 | 8.02535 | 5.77400 | 35177 ft | 501 kts | 240° |
| 2026-05-01 14:02 | 8.00886 | 5.74310 | 35568 ft | 499 kts | 240° |
| 2026-05-01 14:02 | 7.99242 | 5.71233 | 35954 ft | 498 kts | 240° |
| 2026-05-01 14:02 | 7.97600 | 5.68159 | 36320 ft | 497 kts | 240° |
| 2026-05-01 14:03 | 7.95961 | 5.65091 | 36688 ft | 496 kts | 240° |
| 2026-05-01 14:03 | 7.94322 | 5.62026 | 37062 ft | 495 kts | 240° |
| 2026-05-01 14:03 | 7.92710 | 5.59013 | 37422 ft | 494 kts | 240° |
| 2026-05-01 14:03 | 7.91076 | 5.55959 | 37739 ft | 494 kts | 240° |
| 2026-05-01 14:04 | 7.89446 | 5.52912 | 38060 ft | 493 kts | 240° |
| 2026-05-01 14:04 | 7.87818 | 5.49869 | 38384 ft | 492 kts | 240° |
| 2026-05-01 14:04 | 7.86194 | 5.46836 | 38676 ft | 491 kts | 240° |
| 2026-05-01 14:04 | 7.85117 | 5.44824 | 38876 ft | 491 kts | 240° |
| 2026-05-01 14:05 | 7.82950 | 5.40776 | 39187 ft | 490 kts | 240° |
| 2026-05-01 14:05 | 7.81330 | 5.37750 | 39421 ft | 490 kts | 240° |
| 2026-05-01 14:05 | 7.79710 | 5.34727 | 39665 ft | 489 kts | 240° |
| 2026-05-01 14:05 | 7.78091 | 5.31705 | 39861 ft | 490 kts | 240° |
| 2026-05-01 14:06 | 7.74877 | 5.25709 | 39870 ft | 488 kts | 240° |
| 2026-05-01 14:06 | 7.71642 | 5.19676 | 39873 ft | 488 kts | 240° |
| 2026-05-01 14:07 | 7.68411 | 5.13653 | 39881 ft | 488 kts | 240° |
| 2026-05-01 14:08 | 7.63562 | 5.04619 | 39881 ft | 488 kts | 240° |
| 2026-05-01 14:08 | 7.60327 | 4.98593 | 39875 ft | 488 kts | 240° |
| 2026-05-01 14:09 | 7.57089 | 4.92564 | 39881 ft | 488 kts | 240° |
| 2026-05-01 14:09 | 7.53876 | 4.86586 | 39881 ft | 488 kts | 239° |
| 2026-05-01 14:10 | 7.50642 | 4.80570 | 39876 ft | 488 kts | 239° |
| 2026-05-01 14:10 | 7.47400 | 4.74542 | 39877 ft | 488 kts | 239° |
| 2026-05-01 14:11 | 7.44161 | 4.68521 | 39881 ft | 488 kts | 239° |
| 2026-05-01 14:11 | 7.39300 | 4.59492 | 39877 ft | 488 kts | 239° |
| 2026-05-01 14:12 | 7.36060 | 4.53477 | 39881 ft | 488 kts | 239° |
| 2026-05-01 14:12 | 7.32818 | 4.47460 | 39881 ft | 488 kts | 239° |
| 2026-05-01 14:13 | 7.30122 | 4.42458 | 39876 ft | 488 kts | 239° |
| 2026-05-01 14:13 | 7.26881 | 4.36445 | 39878 ft | 488 kts | 239° |
| 2026-05-01 14:14 | 7.23637 | 4.30432 | 39878 ft | 488 kts | 239° |
| 2026-05-01 14:14 | 7.20388 | 4.24418 | 39878 ft | 488 kts | 239° |
| 2026-05-01 14:15 | 7.17163 | 4.18445 | 39873 ft | 488 kts | 239° |
| 2026-05-01 14:15 | 7.13915 | 4.12429 | 39878 ft | 489 kts | 239° |
| 2026-05-01 14:16 | 7.10656 | 4.06397 | 39878 ft | 490 kts | 239° |
| 2026-05-01 14:16 | 7.07402 | 4.00378 | 39878 ft | 490 kts | 239° |
| 2026-05-01 14:17 | 7.04141 | 3.94349 | 39881 ft | 490 kts | 239° |
| 2026-05-01 14:17 | 7.00884 | 3.88328 | 39881 ft | 490 kts | 239° |
| 2026-05-01 14:18 | 6.97648 | 3.82349 | 39878 ft | 490 kts | 239° |
| 2026-05-01 14:18 | 6.94385 | 3.76323 | 39877 ft | 490 kts | 239° |
| 2026-05-01 14:19 | 6.91111 | 3.70279 | 39881 ft | 491 kts | 239° |
| 2026-05-01 14:19 | 6.87842 | 3.64244 | 39886 ft | 491 kts | 239° |
| 2026-05-01 14:20 | 6.82934 | 3.55190 | 39894 ft | 491 kts | 239° |
| 2026-05-01 14:21 | 6.79659 | 3.49152 | 39905 ft | 491 kts | 239° |
| 2026-05-01 14:21 | 6.76411 | 3.43164 | 39918 ft | 490 kts | 239° |
| 2026-05-01 14:22 | 6.71522 | 3.34123 | 39926 ft | 491 kts | 242° |
| 2026-05-01 14:22 | 6.68888 | 3.27778 | 39934 ft | 492 kts | 247° |
| 2026-05-01 14:23 | 6.66462 | 3.21337 | 39928 ft | 492 kts | 248° |
| 2026-05-01 14:23 | 6.64072 | 3.14883 | 39919 ft | 492 kts | 248° |
| 2026-05-01 14:24 | 6.61673 | 3.08426 | 39917 ft | 492 kts | 248° |
| 2026-05-01 14:24 | 6.59264 | 3.01975 | 39891 ft | 493 kts | 248° |
| 2026-05-01 14:25 | 6.56849 | 2.95520 | 39882 ft | 493 kts | 248° |
| 2026-05-01 14:25 | 6.54432 | 2.89064 | 39869 ft | 493 kts | 248° |
| 2026-05-01 14:26 | 6.50805 | 2.79378 | 39877 ft | 493 kts | 248° |
| 2026-05-01 14:27 | 6.48392 | 2.72922 | 39873 ft | 493 kts | 248° |
| 2026-05-01 14:27 | 6.46037 | 2.66445 | 39878 ft | 493 kts | 249° |
| 2026-05-01 14:28 | 6.42542 | 2.56761 | 39869 ft | 493 kts | 249° |
| 2026-05-01 14:28 | 6.40191 | 2.50279 | 39870 ft | 493 kts | 249° |
| 2026-05-01 14:29 | 6.37836 | 2.43802 | 39872 ft | 493 kts | 249° |
| 2026-05-01 14:30 | 6.34818 | 2.30398 | 39870 ft | 494 kts | 260° |
| 2026-05-01 14:31 | 6.33187 | 2.20107 | 39336 ft | 501 kts | 260° |
| 2026-05-01 14:31 | 6.32641 | 2.16644 | 39101 ft | 502 kts | 260° |
| 2026-05-01 14:31 | 6.32093 | 2.13176 | 38879 ft | 503 kts | 260° |
| 2026-05-01 14:31 | 6.31547 | 2.09712 | 38452 ft | 500 kts | 260° |
| 2026-05-01 14:32 | 6.31005 | 2.06279 | 37762 ft | 492 kts | 260° |
| 2026-05-01 14:32 | 6.30475 | 2.02918 | 37105 ft | 482 kts | 260° |
| 2026-05-01 14:32 | 6.29943 | 1.99551 | 36240 ft | 495 kts | 260° |
| 2026-05-01 14:32 | 6.29395 | 1.96093 | 35139 ft | 504 kts | 260° |
| 2026-05-01 14:33 | 6.28847 | 1.92622 | 33994 ft | 501 kts | 260° |
| 2026-05-01 14:33 | 6.28303 | 1.89180 | 32708 ft | 498 kts | 260° |
| 2026-05-01 14:33 | 6.27767 | 1.85792 | 31410 ft | 497 kts | 260° |
| 2026-05-01 14:33 | 6.27225 | 1.82367 | 30143 ft | 495 kts | 260° |
| 2026-05-01 14:34 | 6.26693 | 1.78948 | 28640 ft | 493 kts | 261° |
| 2026-05-01 14:34 | 6.26713 | 1.75518 | 27144 ft | 491 kts | 277° |
| 2026-05-01 14:34 | 6.27229 | 1.72132 | 25721 ft | 489 kts | 280° |
| 2026-05-01 14:34 | 6.27907 | 1.68794 | 24372 ft | 486 kts | 283° |
| 2026-05-01 14:35 | 6.28403 | 1.66611 | 23510 ft | 483 kts | 283° |
| 2026-05-01 14:35 | 6.29415 | 1.62233 | 21497 ft | 476 kts | 283° |
| 2026-05-01 14:35 | 6.30162 | 1.59011 | 20064 ft | 470 kts | 283° |
| 2026-05-01 14:35 | 6.30900 | 1.55827 | 18705 ft | 464 kts | 283° |
| 2026-05-01 14:36 | 6.31631 | 1.52686 | 17266 ft | 457 kts | 283° |
| 2026-05-01 14:36 | 6.32330 | 1.49635 | 15814 ft | 451 kts | 283° |
| 2026-05-01 14:36 | 6.33013 | 1.46580 | 14422 ft | 444 kts | 283° |
| 2026-05-01 14:36 | 6.33795 | 1.43620 | 13190 ft | 431 kts | 291° |
| 2026-05-01 14:37 | 6.35063 | 1.40973 | 12267 ft | 409 kts | 304° |
| 2026-05-01 14:37 | 6.36862 | 1.38899 | 11540 ft | 381 kts | 324° |
| 2026-05-01 14:37 | 6.39078 | 1.37624 | 10801 ft | 355 kts | 345° |
| 2026-05-01 14:37 | 6.41424 | 1.37238 | 10091 ft | 332 kts | 5° |
| 2026-05-01 14:38 | 6.43610 | 1.37703 | 9150 ft | 316 kts | 26° |
| 2026-05-01 14:38 | 6.45405 | 1.38932 | 7967 ft | 311 kts | 48° |
| 2026-05-01 14:38 | 6.46549 | 1.40756 | 6789 ft | 310 kts | 70° |
| 2026-05-01 14:38 | 6.46865 | 1.42896 | 5652 ft | 312 kts | 94° |
| 2026-05-01 14:39 | 6.46265 | 1.44958 | 4815 ft | 304 kts | 120° |
| 2026-05-01 14:39 | 6.44807 | 1.46391 | 4292 ft | 289 kts | 152° |
| 2026-05-01 14:39 | 6.42955 | 1.46772 | 4063 ft | 273 kts | 185° |
| 2026-05-01 14:39 | 6.41215 | 1.46060 | 3941 ft | 274 kts | 219° |
| 2026-05-01 14:40 | 6.40335 | 1.45121 | 3848 ft | 274 kts | 231° |
| 2026-05-01 14:40 | 6.38678 | 1.43201 | 3699 ft | 274 kts | 224° |
| 2026-05-01 14:40 | 6.37756 | 1.42360 | 3622 ft | 266 kts | 219° |
| 2026-05-01 14:40 | 6.35839 | 1.40826 | 3501 ft | 262 kts | 218° |
| 2026-05-01 14:41 | 6.34402 | 1.39688 | 3432 ft | 262 kts | 218° |
| 2026-05-01 14:41 | 6.32974 | 1.38553 | 3364 ft | 260 kts | 218° |
| 2026-05-01 14:41 | 6.31561 | 1.37424 | 3292 ft | 256 kts | 218° |
| 2026-05-01 14:41 | 6.30203 | 1.36335 | 3150 ft | 245 kts | 218° |
| 2026-05-01 14:42 | 6.28887 | 1.35273 | 2847 ft | 241 kts | 218° |
| 2026-05-01 14:42 | 6.27614 | 1.34252 | 2510 ft | 229 kts | 217° |
| 2026-05-01 14:42 | 6.26469 | 1.33336 | 2251 ft | 207 kts | 217° |
| 2026-05-01 14:42 | 6.25390 | 1.32471 | 2008 ft | 190 kts | 215° |
| 2026-05-01 14:43 | 6.24388 | 1.31672 | 1749 ft | 178 kts | 217° |
| 2026-05-01 14:43 | 6.23454 | 1.30920 | 1524 ft | 167 kts | 216° |
| 2026-05-01 14:43 | 6.22581 | 1.30221 | 1309 ft | 154 kts | 216° |
| 2026-05-01 14:43 | 6.21774 | 1.29575 | 1128 ft | 143 kts | 216° |
| 2026-05-01 14:44 | 6.21024 | 1.28974 | 945 ft | 132 kts | 216° |
| 2026-05-01 14:44 | 6.19638 | 1.27851 | 631 ft | 128 kts | 218° |
| 2026-05-01 14:44 | 6.18938 | 1.27300 | 418 ft | 126 kts | 219° |
| 2026-05-01 14:45 | 6.18270 | 1.26752 | 232 ft | 125 kts | 216° |
| 2026-05-01 14:45 | 6.16902 | 1.25675 | 85 ft | 110 kts | 218° |
| 2026-05-01 14:45 | 6.16400 | 1.25276 | 64 ft | 74 kts | 218° |
| 2026-05-01 14:46 | 6.16085 | 1.25027 | 64 ft | 48 kts | 218° |
| 2026-05-01 14:46 | 6.15926 | 1.24800 | 72 ft | 13 kts | 307° |
| 2026-05-01 14:46 | 6.15994 | 1.24751 | 68 ft | 13 kts | 349° |
| 2026-05-01 14:47 | 6.16081 | 1.24785 | 71 ft | 16 kts | 33° |
| 2026-05-01 14:47 | 6.16178 | 1.24860 | 64 ft | 20 kts | 40° |
| 2026-05-01 14:47 | 6.16296 | 1.24954 | 65 ft | 23 kts | 38° |
| 2026-05-01 14:48 | 6.16571 | 1.25174 | 68 ft | 18 kts | 40° |
| 2026-05-01 14:48 | 6.16646 | 1.25234 | 65 ft | 9 kts | 38° |
| 2026-05-01 14:48 | 6.16663 | 1.25248 | 65 ft | 0 kts | 38° |
| 2026-05-01 14:49 | 6.16693 | 1.25278 | 65 ft | 7 kts | 44° |
| 2026-05-01 14:49 | 6.16799 | 1.25369 | 67 ft | 12 kts | 39° |
| 2026-05-01 14:50 | 6.16878 | 1.25434 | 86 ft | 11 kts | 39° |
| 2026-05-01 14:50 | 6.17019 | 1.25511 | 84 ft | 5 kts | 319° |
| 2026-05-01 14:51 | 6.17042 | 1.25482 | 86 ft | 2 kts | 307° |
| 2026-05-01 14:51 | 6.17049 | 1.25472 | 85 ft | 0 kts | 307° |